Time;durP1;ratioP1;P1;durP2;ratioP2;P2;SDS_P1;SDS_P2;PMS_P1;PMS_P2;Temp;Humidity;BMP_temperature;BMP_pressure;BME280_temperature;BME280_humidity;BME280_pressure;Samples;Min_cycle;Max_cycle;Signal;HPM_P1;HPM_P2
2022/12/05 00:01:41;;;;;;;;;;;21.20;38.40;;;;;;465077;256;2174;-43
2022/12/05 00:03:43;;;;;;;;;;;21.30;38.50;;;;;;465145;256;1275;-43
2022/12/05 00:05:44;;;;;;;;;;;21.20;38.40;;;;;;465026;256;1687;-44
2022/12/05 00:07:45;;;;;;;;;;;21.20;38.50;;;;;;464791;256;1391;-44
2022/12/05 00:09:47;;;;;;;;;;;21.20;38.50;;;;;;464638;256;1352;-44
2022/12/05 00:11:48;;;;;;;;;;;21.20;38.50;;;;;;464643;256;1555;-44
2022/12/05 00:13:49;;;;;;;;;;;21.20;38.50;;;;;;464648;256;1276;-44
2022/12/05 00:15:50;;;;;;;;;;;21.20;38.40;;;;;;464597;256;1696;-43
2022/12/05 00:17:52;;;;;;;;;;;21.20;38.30;;;;;;464625;256;1598;-44
2022/12/05 00:19:53;;;;;;;;;;;21.20;38.50;;;;;;464615;256;1250;-44
2022/12/05 00:21:56;;;;;;;;;;;21.20;38.50;;;;;;464657;256;2210;-44
2022/12/05 00:23:56;;;;;;;;;;;21.20;38.50;;;;;;464544;256;1939;-43
2022/12/05 00:25:57;;;;;;;;;;;21.20;38.50;;;;;;464838;256;1390;-44
2022/12/05 00:27:58;;;;;;;;;;;21.20;38.50;;;;;;464832;256;1318;-43
2022/12/05 00:30:00;;;;;;;;;;;21.20;38.50;;;;;;464852;256;1209;-43
2022/12/05 00:32:01;;;;;;;;;;;21.20;38.40;;;;;;464672;256;1260;-44
2022/12/05 00:34:02;;;;;;;;;;;21.30;38.40;;;;;;464775;256;1234;-44
2022/12/05 00:36:04;;;;;;;;;;;21.20;38.50;;;;;;464710;256;1592;-43
2022/12/05 00:38:05;;;;;;;;;;;21.10;38.50;;;;;;464690;256;1285;-43
2022/12/05 00:40:06;;;;;;;;;;;21.10;38.50;;;;;;464662;256;2214;-44
2022/12/05 00:42:08;;;;;;;;;;;21.10;38.50;;;;;;464612;256;1649;-43
2022/12/05 00:44:09;;;;;;;;;;;21.10;38.50;;;;;;464728;256;1286;-44
2022/12/05 00:46:10;;;;;;;;;;;21.20;38.50;;;;;;464817;256;1427;-44
2022/12/05 00:48:12;;;;;;;;;;;21.20;38.50;;;;;;464648;256;1699;-43
2022/12/05 00:50:13;;;;;;;;;;;21.20;38.50;;;;;;464647;256;1397;-44
2022/12/05 00:52:14;;;;;;;;;;;21.20;38.50;;;;;;464634;256;1524;-44
2022/12/05 00:54:16;;;;;;;;;;;21.20;38.50;;;;;;464854;256;1432;-44
2022/12/05 00:56:17;;;;;;;;;;;21.20;38.50;;;;;;464765;256;1243;-43
2022/12/05 00:58:18;;;;;;;;;;;21.20;38.50;;;;;;464788;256;1624;-44
2022/12/05 01:00:20;;;;;;;;;;;21.10;38.50;;;;;;465115;256;2209;-44
2022/12/05 01:02:21;;;;;;;;;;;21.10;38.50;;;;;;465050;256;1268;-43
2022/12/05 01:04:22;;;;;;;;;;;21.10;38.50;;;;;;464843;256;1315;-43
2022/12/05 01:06:24;;;;;;;;;;;21.10;38.50;;;;;;464774;256;1366;-43
2022/12/05 01:08:25;;;;;;;;;;;21.10;38.50;;;;;;464665;256;1548;-44
2022/12/05 01:10:26;;;;;;;;;;;21.10;38.50;;;;;;464799;256;1352;-43
2022/12/05 01:12:28;;;;;;;;;;;21.10;38.50;;;;;;464714;256;1256;-43
2022/12/05 01:14:29;;;;;;;;;;;21.00;38.60;;;;;;465077;256;1375;-43
2022/12/05 01:16:30;;;;;;;;;;;21.10;38.60;;;;;;464903;256;1285;-44
2022/12/05 01:18:32;;;;;;;;;;;21.10;38.50;;;;;;464816;256;1297;-43
2022/12/05 01:20:33;;;;;;;;;;;21.10;38.50;;;;;;464679;256;2154;-44
2022/12/05 01:22:34;;;;;;;;;;;21.10;38.50;;;;;;464740;256;1248;-43
2022/12/05 01:24:35;;;;;;;;;;;21.10;38.40;;;;;;464647;256;1400;-44
2022/12/05 01:26:37;;;;;;;;;;;21.10;38.50;;;;;;464769;256;1370;-44
2022/12/05 01:28:38;;;;;;;;;;;21.00;38.60;;;;;;464929;256;1266;-44
2022/12/05 01:30:39;;;;;;;;;;;21.10;38.60;;;;;;464717;256;1688;-43
2022/12/05 01:32:41;;;;;;;;;;;21.10;38.50;;;;;;464797;256;1342;-44
2022/12/05 01:34:42;;;;;;;;;;;21.10;38.50;;;;;;464936;256;1366;-43
2022/12/05 01:36:43;;;;;;;;;;;21.10;38.50;;;;;;464961;256;1267;-44
2022/12/05 01:38:45;;;;;;;;;;;21.10;38.50;;;;;;465131;256;1244;-44
2022/12/05 01:40:46;;;;;;;;;;;21.10;38.50;;;;;;464886;256;2198;-44
2022/12/05 01:42:47;;;;;;;;;;;21.10;38.50;;;;;;464762;256;1430;-43
2022/12/05 01:44:49;;;;;;;;;;;21.00;38.60;;;;;;464732;256;1244;-44
2022/12/05 01:46:50;;;;;;;;;;;21.10;38.50;;;;;;464714;256;1419;-44
2022/12/05 01:48:51;;;;;;;;;;;21.10;38.50;;;;;;465138;256;1270;-44
2022/12/05 01:50:53;;;;;;;;;;;21.00;38.50;;;;;;464818;256;1228;-43
2022/12/05 01:52:54;;;;;;;;;;;21.10;38.60;;;;;;464756;256;1224;-44
2022/12/05 01:54:55;;;;;;;;;;;21.10;38.60;;;;;;465126;256;1217;-44
2022/12/05 01:56:57;;;;;;;;;;;21.00;38.60;;;;;;465129;256;1237;-44
2022/12/05 01:58:58;;;;;;;;;;;21.00;38.60;;;;;;464737;256;1216;-44
2022/12/05 02:00:59;;;;;;;;;;;21.00;38.60;;;;;;465125;256;2174;-44
2022/12/05 02:03:01;;;;;;;;;;;21.10;38.60;;;;;;464765;256;1219;-44
2022/12/05 02:05:02;;;;;;;;;;;21.10;38.60;;;;;;464950;256;1647;-43
2022/12/05 02:07:03;;;;;;;;;;;21.00;38.60;;;;;;464918;256;1318;-43
2022/12/05 02:09:05;;;;;;;;;;;21.10;38.50;;;;;;464793;256;1713;-44
2022/12/05 02:11:06;;;;;;;;;;;21.00;38.50;;;;;;464641;256;1423;-44
2022/12/05 02:13:07;;;;;;;;;;;21.00;38.60;;;;;;464836;256;1240;-44
2022/12/05 02:15:09;;;;;;;;;;;21.00;38.50;;;;;;464649;256;1360;-44
2022/12/05 02:17:10;;;;;;;;;;;21.00;38.50;;;;;;465022;256;1308;-43
2022/12/05 02:19:11;;;;;;;;;;;21.10;38.60;;;;;;464674;256;1257;-43
2022/12/05 02:21:12;;;;;;;;;;;21.10;38.50;;;;;;464604;256;2221;-44
2022/12/05 02:23:14;;;;;;;;;;;21.00;38.40;;;;;;464930;256;1270;-44
2022/12/05 02:25:15;;;;;;;;;;;21.10;38.50;;;;;;464648;256;1540;-43
2022/12/05 02:27:17;;;;;;;;;;;21.10;38.60;;;;;;464841;256;1293;-44
2022/12/05 02:29:18;;;;;;;;;;;21.00;38.60;;;;;;465125;256;1195;-44
2022/12/05 02:31:19;;;;;;;;;;;21.00;38.50;;;;;;464707;256;1142;-44
2022/12/05 02:33:21;;;;;;;;;;;21.00;38.60;;;;;;465105;256;1228;-43
2022/12/05 02:35:22;;;;;;;;;;;21.10;38.50;;;;;;464886;256;1198;-44
2022/12/05 02:37:23;;;;;;;;;;;21.30;38.20;;;;;;464987;256;1213;-44
2022/12/05 02:39:25;;;;;;;;;;;21.50;37.90;;;;;;465054;256;1583;-44
2022/12/05 02:41:26;;;;;;;;;;;21.60;37.60;;;;;;464917;256;2219;-44
2022/12/05 02:43:27;;;;;;;;;;;21.70;37.30;;;;;;464770;256;1351;-44
2022/12/05 02:45:29;;;;;;;;;;;21.90;37.20;;;;;;464711;256;1352;-44
2022/12/05 02:47:30;;;;;;;;;;;21.90;37.00;;;;;;465075;256;1420;-44
2022/12/05 02:49:31;;;;;;;;;;;22.00;36.80;;;;;;464774;256;1490;-44
2022/12/05 02:51:33;;;;;;;;;;;22.10;36.80;;;;;;464710;256;1942;-44
2022/12/05 02:53:34;;;;;;;;;;;22.10;36.60;;;;;;464942;256;1470;-43
2022/12/05 02:55:35;;;;;;;;;;;22.20;36.60;;;;;;464732;256;1247;-43
2022/12/05 02:57:36;;;;;;;;;;;22.20;36.50;;;;;;464824;256;1227;-44
2022/12/05 02:59:38;;;;;;;;;;;22.30;36.50;;;;;;464708;256;1379;-44
2022/12/05 03:01:39;;;;;;;;;;;22.30;36.40;;;;;;464842;256;2159;-44
2022/12/05 03:03:40;;;;;;;;;;;22.30;36.30;;;;;;465090;256;1317;-44
2022/12/05 03:05:42;;;;;;;;;;;22.40;36.30;;;;;;465116;256;1252;-44
2022/12/05 03:07:43;;;;;;;;;;;22.40;36.30;;;;;;464648;256;1688;-44
2022/12/05 03:09:44;;;;;;;;;;;22.40;36.20;;;;;;465112;256;1293;-44
2022/12/05 03:11:46;;;;;;;;;;;22.40;36.10;;;;;;464725;256;1340;-44
2022/12/05 03:13:47;;;;;;;;;;;22.50;36.10;;;;;;464786;256;1653;-44
2022/12/05 03:15:48;;;;;;;;;;;22.50;36.10;;;;;;465121;256;1205;-44
2022/12/05 03:17:50;;;;;;;;;;;22.50;36.00;;;;;;465075;256;1295;-44
2022/12/05 03:19:51;;;;;;;;;;;22.60;36.10;;;;;;464920;256;1346;-44
2022/12/05 03:21:52;;;;;;;;;;;22.50;35.90;;;;;;465074;256;2163;-44
2022/12/05 03:23:54;;;;;;;;;;;22.60;36.00;;;;;;464735;256;1223;-44
2022/12/05 03:25:55;;;;;;;;;;;22.60;36.00;;;;;;464754;256;1373;-44
2022/12/05 03:27:56;;;;;;;;;;;22.60;35.90;;;;;;464766;256;1236;-44
2022/12/05 03:30:00;;;;;;;;;;;22.60;35.90;;;;;;465169;256;1301;-44
2022/12/05 03:31:59;;;;;;;;;;;22.70;35.90;;;;;;464690;256;1721;-44
2022/12/05 03:34:00;;;;;;;;;;;22.70;35.80;;;;;;465148;256;1364;-44
2022/12/05 03:36:02;;;;;;;;;;;22.70;35.80;;;;;;465082;256;1207;-44
2022/12/05 03:38:03;;;;;;;;;;;22.70;35.70;;;;;;464753;256;1173;-44
2022/12/05 03:40:05;;;;;;;;;;;22.80;35.80;;;;;;465041;256;1230;-43
2022/12/05 03:42:06;;;;;;;;;;;22.80;35.70;;;;;;464766;256;2191;-44
2022/12/05 03:44:07;;;;;;;;;;;22.70;35.60;;;;;;464788;256;1251;-44
2022/12/05 03:46:09;;;;;;;;;;;22.80;35.70;;;;;;464764;256;1450;-44
2022/12/05 03:48:10;;;;;;;;;;;22.80;35.60;;;;;;464973;256;1224;-44
2022/12/05 03:50:12;;;;;;;;;;;22.80;35.60;;;;;;464912;256;1242;-44
2022/12/05 03:52:13;;;;;;;;;;;22.90;35.60;;;;;;464919;256;1248;-44
2022/12/05 03:54:14;;;;;;;;;;;22.90;35.60;;;;;;464977;256;1254;-43
2022/12/05 03:56:15;;;;;;;;;;;22.90;35.60;;;;;;464746;256;1229;-45
2022/12/05 03:58:17;;;;;;;;;;;22.90;35.60;;;;;;464740;256;1279;-44
2022/12/05 04:00:18;;;;;;;;;;;22.90;35.60;;;;;;464916;256;1361;-44
2022/12/05 04:02:20;;;;;;;;;;;22.90;35.60;;;;;;465077;256;2174;-43
2022/12/05 04:04:21;;;;;;;;;;;22.90;35.50;;;;;;465007;256;1340;-43
2022/12/05 04:06:22;;;;;;;;;;;22.90;35.50;;;;;;465009;256;1291;-44
2022/12/05 04:08:24;;;;;;;;;;;22.90;35.50;;;;;;464710;256;1685;-44
2022/12/05 04:10:25;;;;;;;;;;;23.00;35.50;;;;;;465012;256;1200;-44
2022/12/05 04:12:26;;;;;;;;;;;23.00;35.50;;;;;;464759;256;1271;-44
2022/12/05 04:14:28;;;;;;;;;;;23.00;35.40;;;;;;465118;256;1346;-43
2022/12/05 04:18:50;;;;;;;;;;;23.00;35.40;;;;;;458008;257;1444;-44
2022/12/05 04:23:11;;;;;;;;;;;23.00;35.40;;;;;;464828;256;2178;-43
2022/12/05 04:27:31;;;;;;;;;;;23.00;35.40;;;;;;464655;257;1239;-44
2022/12/05 04:29:32;;;;;;;;;;;23.00;35.40;;;;;;464719;256;1229;-43
2022/12/05 04:31:34;;;;;;;;;;;23.00;35.40;;;;;;464948;256;1222;-44
2022/12/05 04:33:35;;;;;;;;;;;23.10;35.40;;;;;;464823;256;1742;-44
2022/12/05 04:35:36;;;;;;;;;;;23.10;35.40;;;;;;464878;256;1637;-44
2022/12/05 04:37:38;;;;;;;;;;;23.10;35.40;;;;;;464704;256;1724;-44
2022/12/05 04:39:39;;;;;;;;;;;23.10;35.30;;;;;;464740;256;1228;-44
2022/12/05 04:41:40;;;;;;;;;;;23.10;35.40;;;;;;464746;256;2178;-44
2022/12/05 04:43:42;;;;;;;;;;;23.10;35.30;;;;;;464782;256;1442;-44
2022/12/05 04:45:43;;;;;;;;;;;23.10;35.30;;;;;;464794;256;1221;-44
2022/12/05 04:47:44;;;;;;;;;;;23.10;35.30;;;;;;465048;256;1353;-44
2022/12/05 04:49:46;;;;;;;;;;;23.10;35.30;;;;;;464797;256;1267;-43
2022/12/05 04:51:47;;;;;;;;;;;23.10;35.30;;;;;;464725;256;1318;-44
2022/12/05 04:53:48;;;;;;;;;;;23.10;35.30;;;;;;465106;256;1225;-45
2022/12/05 04:55:50;;;;;;;;;;;23.20;35.30;;;;;;464730;256;1315;-44
2022/12/05 04:57:51;;;;;;;;;;;23.20;35.30;;;;;;464695;256;1277;-44
2022/12/05 04:59:52;;;;;;;;;;;23.20;35.30;;;;;;464804;256;1267;-44
2022/12/05 05:01:54;;;;;;;;;;;23.20;35.30;;;;;;464603;256;2198;-44
2022/12/05 05:03:55;;;;;;;;;;;23.20;35.20;;;;;;464662;256;1389;-43
2022/12/05 05:05:56;;;;;;;;;;;23.20;35.20;;;;;;465044;256;1443;-44
2022/12/05 05:07:58;;;;;;;;;;;23.20;35.20;;;;;;464877;256;1404;-44
2022/12/05 05:09:59;;;;;;;;;;;23.20;35.20;;;;;;465056;256;1396;-44
2022/12/05 05:12:00;;;;;;;;;;;23.20;35.20;;;;;;464821;256;1723;-44
2022/12/05 05:14:02;;;;;;;;;;;23.30;35.20;;;;;;464583;256;1694;-44
2022/12/05 05:16:03;;;;;;;;;;;23.20;35.20;;;;;;464917;256;1246;-44
2022/12/05 05:18:04;;;;;;;;;;;23.30;35.20;;;;;;464684;256;1221;-44
2022/12/05 05:20:23;;;;;;;;;;;23.30;35.20;;;;;;464665;256;1236;-44
2022/12/05 05:22:24;;;;;;;;;;;23.30;35.20;;;;;;465062;256;2201;-44
2022/12/05 05:24:25;;;;;;;;;;;23.30;35.20;;;;;;464713;256;1625;-44
2022/12/05 05:26:26;;;;;;;;;;;23.30;35.20;;;;;;464623;256;1290;-43
2022/12/05 05:28:28;;;;;;;;;;;23.30;35.10;;;;;;464772;256;1434;-44
2022/12/05 05:30:29;;;;;;;;;;;23.30;35.10;;;;;;464629;256;1412;-44
2022/12/05 05:32:30;;;;;;;;;;;23.30;35.10;;;;;;464556;256;1329;-43
2022/12/05 05:34:32;;;;;;;;;;;23.30;35.10;;;;;;465004;256;1411;-44
2022/12/05 05:36:33;;;;;;;;;;;23.30;35.10;;;;;;464813;256;1983;-44
2022/12/05 05:38:34;;;;;;;;;;;23.30;35.10;;;;;;464694;256;1521;-44
2022/12/05 05:40:36;;;;;;;;;;;23.40;35.20;;;;;;464565;256;1209;-44
2022/12/05 05:42:37;;;;;;;;;;;23.30;35.10;;;;;;465025;256;2210;-44
2022/12/05 05:44:38;;;;;;;;;;;23.40;35.10;;;;;;464744;256;1273;-43
2022/12/05 05:46:40;;;;;;;;;;;23.30;35.00;;;;;;464528;256;1368;-44
2022/12/05 05:48:41;;;;;;;;;;;23.40;35.10;;;;;;464613;256;1674;-44
2022/12/05 05:50:42;;;;;;;;;;;23.40;35.10;;;;;;464797;256;1495;-44
2022/12/05 05:52:44;;;;;;;;;;;23.40;35.10;;;;;;464585;256;1966;-44
2022/12/05 05:54:45;;;;;;;;;;;23.40;35.00;;;;;;464546;256;1753;-44
2022/12/05 05:56:46;;;;;;;;;;;23.40;35.10;;;;;;464820;256;1642;-44
2022/12/05 05:58:48;;;;;;;;;;;23.40;35.10;;;;;;464817;256;1479;-44
2022/12/05 06:00:49;;;;;;;;;;;23.30;35.20;;;;;;464674;256;1877;-44
2022/12/05 06:02:50;;;;;;;;;;;23.30;35.30;;;;;;464507;256;2174;-44
2022/12/05 06:04:52;;;;;;;;;;;23.10;35.40;;;;;;464902;256;1697;-44
2022/12/05 06:06:53;;;;;;;;;;;22.90;35.70;;;;;;464597;256;1711;-44
2022/12/05 06:08:54;;;;;;;;;;;22.80;36.10;;;;;;464609;256;1802;-44
2022/12/05 06:10:56;;;;;;;;;;;22.50;36.30;;;;;;464781;256;1282;-43
2022/12/05 06:12:57;;;;;;;;;;;22.40;36.60;;;;;;464569;256;1451;-44
2022/12/05 06:14:58;;;;;;;;;;;22.40;36.70;;;;;;464647;256;1826;-44
2022/12/05 06:17:00;;;;;;;;;;;22.30;36.90;;;;;;464701;256;1397;-44
2022/12/05 06:19:01;;;;;;;;;;;22.20;37.00;;;;;;464805;256;1612;-44
2022/12/05 06:21:02;;;;;;;;;;;22.10;37.10;;;;;;464626;256;1250;-44
2022/12/05 06:23:04;;;;;;;;;;;22.10;37.20;;;;;;464579;256;2202;-44
2022/12/05 06:25:05;;;;;;;;;;;22.10;37.30;;;;;;464776;256;1648;-43
2022/12/05 06:27:06;;;;;;;;;;;22.00;37.40;;;;;;464642;256;1260;-44
2022/12/05 06:29:08;;;;;;;;;;;22.00;37.40;;;;;;464778;256;1310;-43
2022/12/05 06:31:09;;;;;;;;;;;22.00;37.50;;;;;;464664;256;1228;-43
2022/12/05 06:33:10;;;;;;;;;;;21.90;37.60;;;;;;464850;256;1211;-44
2022/12/05 06:35:14;;;;;;;;;;;21.90;37.60;;;;;;464810;256;1307;-43
2022/12/05 06:37:16;;;;;;;;;;;21.90;37.70;;;;;;464726;256;1280;-44
2022/12/05 06:39:17;;;;;;;;;;;21.90;37.70;;;;;;464693;256;1313;-43
2022/12/05 06:41:18;;;;;;;;;;;21.90;37.70;;;;;;464840;256;1381;-44
2022/12/05 06:43:20;;;;;;;;;;;21.80;37.70;;;;;;464695;256;2147;-44
2022/12/05 06:45:21;;;;;;;;;;;21.80;37.70;;;;;;464732;256;1671;-43
2022/12/05 06:47:22;;;;;;;;;;;21.80;37.80;;;;;;465092;256;1317;-43
2022/12/05 06:49:25;;;;;;;;;;;21.70;37.70;;;;;;464912;256;1278;-43
2022/12/05 06:51:25;;;;;;;;;;;21.70;37.80;;;;;;464624;256;1733;-44
2022/12/05 06:53:27;;;;;;;;;;;21.60;37.50;;;;;;464741;256;1675;-43
2022/12/05 06:55:28;;;;;;;;;;;21.60;37.60;;;;;;464547;256;1353;-44
2022/12/05 06:57:29;;;;;;;;;;;21.60;37.50;;;;;;464485;256;1814;-44
2022/12/05 06:59:31;;;;;;;;;;;21.70;37.60;;;;;;464630;256;1266;-43
2022/12/05 07:01:39;;;;;;;;;;;21.60;37.40;;;;;;464387;256;1290;-43
2022/12/05 07:03:39;;;;;;;;;;;21.60;37.50;;;;;;464683;256;2209;-44
2022/12/05 07:05:41;;;;;;;;;;;21.60;37.50;;;;;;464470;256;1330;-43
2022/12/05 07:07:42;;;;;;;;;;;21.60;37.50;;;;;;464421;256;1269;-44
2022/12/05 07:09:50;;;;;;;;;;;21.60;37.50;;;;;;464477;256;1233;-44
2022/12/05 07:11:52;;;;;;;;;;;21.60;37.50;;;;;;464413;256;1433;-44
2022/12/05 07:13:53;;;;;;;;;;;21.60;37.50;;;;;;464553;256;1310;-44
2022/12/05 07:15:54;;;;;;;;;;;21.60;37.60;;;;;;464429;256;1234;-43
2022/12/05 07:17:56;;;;;;;;;;;21.60;37.60;;;;;;464405;256;1749;-43
2022/12/05 07:19:57;;;;;;;;;;;21.60;37.50;;;;;;464376;256;1630;-43
2022/12/05 07:21:58;;;;;;;;;;;21.60;37.50;;;;;;464475;256;1233;-44
2022/12/05 07:24:00;;;;;;;;;;;21.60;37.60;;;;;;464391;256;2199;-44
2022/12/05 07:26:01;;;;;;;;;;;21.60;37.60;;;;;;464445;256;1194;-43
2022/12/05 07:28:02;;;;;;;;;;;21.50;37.60;;;;;;464636;256;1224;-43
2022/12/05 07:30:04;;;;;;;;;;;21.60;37.60;;;;;;464674;256;1270;-44
2022/12/05 07:32:05;;;;;;;;;;;21.60;37.50;;;;;;464512;256;1303;-43
2022/12/05 07:34:06;;;;;;;;;;;21.60;37.60;;;;;;464421;256;1212;-44
2022/12/05 07:36:08;;;;;;;;;;;21.60;37.50;;;;;;464524;256;1400;-44
2022/12/05 07:38:09;;;;;;;;;;;21.50;37.50;;;;;;464716;256;1183;-43
2022/12/05 07:40:10;;;;;;;;;;;21.60;37.50;;;;;;464444;256;1337;-43
2022/12/05 07:42:12;;;;;;;;;;;21.60;37.60;;;;;;464612;256;1259;-43
2022/12/05 07:44:13;;;;;;;;;;;21.60;37.60;;;;;;464540;256;2135;-44
2022/12/05 07:46:15;;;;;;;;;;;21.50;37.50;;;;;;464451;256;1242;-43
2022/12/05 07:48:15;;;;;;;;;;;21.50;37.50;;;;;;464620;256;1295;-43
2022/12/05 07:50:17;;;;;;;;;;;21.50;37.60;;;;;;464508;256;1270;-44
2022/12/05 07:52:18;;;;;;;;;;;21.60;37.60;;;;;;464403;256;1454;-44
2022/12/05 07:54:19;;;;;;;;;;;21.50;37.60;;;;;;464040;256;1265;-44
2022/12/05 07:56:21;;;;;;;;;;;21.50;37.70;;;;;;464451;256;1195;-44
2022/12/05 07:58:22;;;;;;;;;;;21.50;37.60;;;;;;464468;256;1678;-44
2022/12/05 08:00:24;;;;;;;;;;;21.50;37.60;;;;;;464136;256;1435;-44
2022/12/05 08:02:25;;;;;;;;;;;21.50;37.50;;;;;;463841;256;1587;-44
2022/12/05 08:04:26;;;;;;;;;;;21.50;37.60;;;;;;464617;256;2205;-44
2022/12/05 08:06:27;;;;;;;;;;;21.50;37.60;;;;;;464287;256;1061;-44
2022/12/05 08:08:29;;;;;;;;;;;21.50;37.60;;;;;;464374;256;1382;-44
2022/12/05 08:10:30;;;;;;;;;;;21.60;37.50;;;;;;463794;256;1892;-44
2022/12/05 08:12:31;;;;;;;;;;;21.60;37.50;;;;;;463999;256;1301;-44
2022/12/05 08:14:33;;;;;;;;;;;21.60;37.50;;;;;;463964;256;1425;-44
2022/12/05 08:16:34;;;;;;;;;;;21.50;37.50;;;;;;463948;256;1297;-43
2022/12/05 08:18:35;;;;;;;;;;;21.60;37.50;;;;;;464002;256;1276;-44
2022/12/05 08:20:37;;;;;;;;;;;21.50;37.50;;;;;;464025;256;1399;-44
2022/12/05 08:22:38;;;;;;;;;;;21.60;37.60;;;;;;464127;256;1367;-44
2022/12/05 08:24:39;;;;;;;;;;;21.60;37.50;;;;;;464135;256;2198;-44
2022/12/05 08:26:41;;;;;;;;;;;21.60;37.50;;;;;;464050;256;1301;-44
2022/12/05 08:28:42;;;;;;;;;;;21.60;37.50;;;;;;464115;256;1679;-44
2022/12/05 08:30:43;;;;;;;;;;;21.60;37.50;;;;;;464215;256;1354;-44
2022/12/05 08:32:45;;;;;;;;;;;21.50;37.60;;;;;;464184;256;1254;-43
2022/12/05 08:34:46;;;;;;;;;;;21.50;37.60;;;;;;464176;256;1215;-44
2022/12/05 08:36:47;;;;;;;;;;;21.50;37.50;;;;;;464126;256;1272;-44
2022/12/05 08:38:49;;;;;;;;;;;21.60;37.50;;;;;;463975;256;1697;-43
2022/12/05 08:40:50;;;;;;;;;;;21.60;37.50;;;;;;464122;256;1502;-44
2022/12/05 08:42:51;;;;;;;;;;;21.60;37.50;;;;;;464021;256;2210;-44
2022/12/05 08:44:53;;;;;;;;;;;21.60;37.50;;;;;;463892;256;1221;-44
2022/12/05 08:46:54;;;;;;;;;;;21.60;37.40;;;;;;464034;256;1350;-44
2022/12/05 08:48:55;;;;;;;;;;;21.60;37.40;;;;;;464043;256;1312;-44
2022/12/05 08:50:57;;;;;;;;;;;21.60;37.40;;;;;;464092;256;1277;-44
2022/12/05 08:52:58;;;;;;;;;;;21.60;37.40;;;;;;464180;256;1192;-44
2022/12/05 08:54:59;;;;;;;;;;;21.60;37.50;;;;;;464002;256;1249;-44
2022/12/05 08:57:01;;;;;;;;;;;21.60;37.50;;;;;;463771;256;1283;-44
2022/12/05 08:59:02;;;;;;;;;;;21.60;37.50;;;;;;463756;256;1510;-44
2022/12/05 09:01:03;;;;;;;;;;;21.60;37.60;;;;;;463829;256;1242;-44
2022/12/05 09:03:05;;;;;;;;;;;21.60;37.50;;;;;;463975;256;2210;-44
2022/12/05 09:05:06;;;;;;;;;;;21.60;37.50;;;;;;464173;256;1289;-44
2022/12/05 09:07:07;;;;;;;;;;;21.60;37.60;;;;;;464130;256;1647;-43
2022/12/05 09:09:10;;;;;;;;;;;21.60;37.60;;;;;;463840;256;1251;-43
2022/12/05 09:11:10;;;;;;;;;;;21.50;37.60;;;;;;463996;256;1558;-43
2022/12/05 09:13:13;;;;;;;;;;;21.60;37.60;;;;;;463929;256;1219;-43
2022/12/05 09:15:13;;;;;;;;;;;21.60;37.60;;;;;;464430;256;1755;-43
2022/12/05 09:17:14;;;;;;;;;;;21.60;37.60;;;;;;464257;256;1256;-43
2022/12/05 09:19:15;;;;;;;;;;;21.60;37.70;;;;;;464143;256;1225;-43
2022/12/05 09:21:17;;;;;;;;;;;21.60;37.70;;;;;;463816;256;1702;-43
2022/12/05 09:23:18;;;;;;;;;;;21.60;37.70;;;;;;463609;256;2198;-43
2022/12/05 09:25:20;;;;;;;;;;;21.60;37.70;;;;;;464059;256;1198;-43
2022/12/05 09:27:21;;;;;;;;;;;21.60;37.60;;;;;;463666;256;1355;-43
2022/12/05 09:29:24;;;;;;;;;;;21.60;37.60;;;;;;463946;256;1298;-43
2022/12/05 09:31:24;;;;;;;;;;;21.60;37.70;;;;;;463859;257;1864;-44
2022/12/05 09:33:25;;;;;;;;;;;21.60;37.70;;;;;;463917;256;1406;-43
2022/12/05 09:35:26;;;;;;;;;;;21.60;37.70;;;;;;464094;256;1484;-43
2022/12/05 09:37:28;;;;;;;;;;;21.60;37.70;;;;;;464064;256;1435;-43
2022/12/05 09:39:29;;;;;;;;;;;21.70;37.70;;;;;;464064;256;1224;-44
2022/12/05 09:43:51;;;;;;;;;;;21.70;37.50;;;;;;464031;257;2203;-43
2022/12/05 09:45:52;;;;;;;;;;;21.60;37.40;;;;;;464123;256;1245;-43
2022/12/05 09:47:55;;;;;;;;;;;21.70;37.60;;;;;;464017;256;1395;-43
2022/12/05 09:49:55;;;;;;;;;;;21.60;37.60;;;;;;464206;256;1283;-43
2022/12/05 09:51:56;;;;;;;;;;;21.60;37.60;;;;;;464485;256;1316;-43
2022/12/05 09:53:57;;;;;;;;;;;21.60;37.60;;;;;;464271;256;1465;-43
2022/12/05 09:55:59;;;;;;;;;;;21.60;37.60;;;;;;464337;256;1599;-43
2022/12/05 09:58:00;;;;;;;;;;;21.60;37.70;;;;;;464090;256;1146;-43
2022/12/05 10:00:02;;;;;;;;;;;21.60;37.60;;;;;;464051;256;1316;-43
2022/12/05 10:02:04;;;;;;;;;;;21.60;37.70;;;;;;464118;256;1421;-43
2022/12/05 10:04:04;;;;;;;;;;;21.50;37.70;;;;;;464152;256;2171;-43
2022/12/05 10:06:06;;;;;;;;;;;21.50;37.70;;;;;;464155;256;1185;-43
2022/12/05 10:08:07;;;;;;;;;;;21.50;37.80;;;;;;464086;256;1230;-43
2022/12/05 10:10:09;;;;;;;;;;;21.50;37.70;;;;;;464134;256;1315;-43
2022/12/05 10:12:10;;;;;;;;;;;21.50;37.70;;;;;;464196;256;1336;-43
2022/12/05 10:14:11;;;;;;;;;;;21.50;37.70;;;;;;464196;256;1322;-43
2022/12/05 10:16:13;;;;;;;;;;;21.50;37.80;;;;;;463993;256;1324;-43
2022/12/05 10:18:14;;;;;;;;;;;21.50;37.80;;;;;;464160;256;1221;-43
2022/12/05 10:20:15;;;;;;;;;;;21.50;37.80;;;;;;464165;256;1251;-43
2022/12/05 10:22:17;;;;;;;;;;;21.50;37.80;;;;;;463969;256;1409;-44
2022/12/05 10:24:18;;;;;;;;;;;21.50;37.80;;;;;;464188;256;2202;-43
2022/12/05 10:26:19;;;;;;;;;;;21.50;37.80;;;;;;464039;256;1381;-43
2022/12/05 10:28:21;;;;;;;;;;;21.50;37.80;;;;;;464263;256;1214;-43
2022/12/05 10:30:22;;;;;;;;;;;21.50;37.80;;;;;;464148;256;1276;-43
2022/12/05 10:32:23;;;;;;;;;;;21.50;37.80;;;;;;464152;256;1680;-43
2022/12/05 10:34:25;;;;;;;;;;;21.40;37.80;;;;;;464122;256;1222;-43
2022/12/05 10:36:26;;;;;;;;;;;21.40;37.80;;;;;;464174;256;1110;-44
2022/12/05 10:38:27;;;;;;;;;;;21.40;37.80;;;;;;463990;256;1210;-43
2022/12/05 10:40:29;;;;;;;;;;;21.40;37.80;;;;;;464385;256;1111;-43
2022/12/05 10:42:30;;;;;;;;;;;21.50;37.80;;;;;;464277;256;1232;-43
2022/12/05 10:44:31;;;;;;;;;;;21.40;37.80;;;;;;464113;256;2203;-43
2022/12/05 10:46:33;;;;;;;;;;;21.40;37.80;;;;;;463834;256;1312;-44
2022/12/05 10:48:34;;;;;;;;;;;21.40;37.80;;;;;;464242;256;1364;-43
2022/12/05 10:50:35;;;;;;;;;;;21.40;37.80;;;;;;464346;256;1248;-43
2022/12/05 10:52:37;;;;;;;;;;;21.40;37.90;;;;;;464262;256;1280;-43
2022/12/05 10:54:38;;;;;;;;;;;21.40;37.90;;;;;;464345;256;1949;-43
2022/12/05 10:56:39;;;;;;;;;;;21.40;37.80;;;;;;464264;256;1252;-44
2022/12/05 10:58:40;;;;;;;;;;;21.40;37.80;;;;;;464278;256;1663;-43
2022/12/05 11:00:45;;;;;;;;;;;21.40;37.80;;;;;;464307;256;1449;-44
2022/12/05 11:02:44;;;;;;;;;;;21.40;37.80;;;;;;464035;257;2222;-43
2022/12/05 11:04:46;;;;;;;;;;;21.40;37.80;;;;;;464210;256;2253;-43
2022/12/05 11:06:47;;;;;;;;;;;21.40;37.80;;;;;;464509;256;1756;-44
2022/12/05 11:08:48;;;;;;;;;;;21.40;37.80;;;;;;464166;256;1432;-43
2022/12/05 11:10:50;;;;;;;;;;;21.40;37.80;;;;;;464280;256;1702;-44
2022/12/05 11:12:51;;;;;;;;;;;21.40;37.80;;;;;;464219;256;1955;-43
2022/12/05 11:14:52;;;;;;;;;;;21.40;37.90;;;;;;463956;256;2575;-43
2022/12/05 11:16:54;;;;;;;;;;;21.40;37.80;;;;;;464214;256;1220;-44
2022/12/05 11:18:55;;;;;;;;;;;21.30;37.80;;;;;;464332;256;1728;-43
2022/12/05 11:20:56;;;;;;;;;;;21.40;37.80;;;;;;464240;256;1612;-43
2022/12/05 11:22:58;;;;;;;;;;;21.30;37.80;;;;;;464225;256;1247;-44
2022/12/05 11:24:59;;;;;;;;;;;21.40;37.80;;;;;;464313;256;2198;-44
2022/12/05 11:27:01;;;;;;;;;;;21.40;37.80;;;;;;464225;256;1667;-43
2022/12/05 11:29:03;;;;;;;;;;;21.40;37.80;;;;;;464174;256;1526;-44
2022/12/05 11:31:04;;;;;;;;;;;21.40;37.80;;;;;;464174;256;1696;-43
2022/12/05 11:33:05;;;;;;;;;;;21.30;37.80;;;;;;464184;256;1398;-43
2022/12/05 11:35:07;;;;;;;;;;;21.30;37.80;;;;;;464199;256;1519;-43
2022/12/05 11:37:08;;;;;;;;;;;21.30;37.90;;;;;;464023;256;1378;-43
2022/12/05 11:39:09;;;;;;;;;;;21.30;37.90;;;;;;463966;256;1284;-44
2022/12/05 11:41:11;;;;;;;;;;;21.30;37.80;;;;;;464252;256;1215;-43
2022/12/05 11:43:12;;;;;;;;;;;21.40;37.90;;;;;;463970;256;1283;-44
2022/12/05 11:45:13;;;;;;;;;;;21.30;37.90;;;;;;464240;256;2176;-43
2022/12/05 11:47:15;;;;;;;;;;;21.30;37.80;;;;;;464238;256;1630;-44
2022/12/05 11:49:16;;;;;;;;;;;21.30;37.80;;;;;;464261;256;1304;-43
2022/12/05 11:51:17;;;;;;;;;;;21.30;37.80;;;;;;464237;256;1416;-43
2022/12/05 11:53:19;;;;;;;;;;;21.30;37.80;;;;;;464270;256;1266;-44
2022/12/05 11:55:20;;;;;;;;;;;21.30;37.80;;;;;;464324;256;1262;-43
2022/12/05 11:57:21;;;;;;;;;;;21.30;37.80;;;;;;464258;256;1258;-44
2022/12/05 11:59:23;;;;;;;;;;;21.30;37.80;;;;;;464260;256;1488;-43
2022/12/05 12:01:24;;;;;;;;;;;21.30;37.80;;;;;;464160;256;1390;-43
2022/12/05 12:03:26;;;;;;;;;;;21.30;37.80;;;;;;464215;256;1305;-44
2022/12/05 12:05:27;;;;;;;;;;;21.30;37.80;;;;;;464290;256;2162;-43
2022/12/05 12:07:28;;;;;;;;;;;21.30;37.80;;;;;;464374;256;1373;-43